Terminal Aerodrome Forecast
Issued by NWS

Home | Current Version | Previous Version | Text Only | Print | Product List | Glossary On
Versions: 1 2 3 4 5 6 7 8 9 10 11 12 13 14
000
FTUS45 KABQ 301142
TAFSAF
TAF
KSAF 301142Z 3012/3112 10007KT P6SM VCSH OVC060
     FM301900 15009KT P6SM VCSH BKN060
      TEMPO 3022/3102 4SM TSRA OVC025CB
     FM310200 11009KT 5SM -SHRA OVC030=

USA.gov is the U.S. government's official web portal to all federal, state and local government web resources and services.